Time;durP1;ratioP1;P1;durP2;ratioP2;P2;SDS_P1;SDS_P2;PMS_P1;PMS_P2;Temp;Humidity;BMP_temperature;BMP_pressure;BME280_temperature;BME280_humidity;BME280_pressure;Samples;Min_cycle;Max_cycle;Signal;HPM_P1;HPM_P2
2021/06/09 00:00:50;;;;;;;16.27;9.30;;;;;;;13.62;100.00;99644.27;1657733;86;21073;-82
2021/06/09 00:03:20;;;;;;;13.55;10.23;;;;;;;13.63;100.00;99639.34;1657362;85;21130;-83
2021/06/09 00:05:48;;;;;;;11.45;10.08;;;;;;;13.66;100.00;99636.14;1657397;86;21089;-80
2021/06/09 00:08:15;;;;;;;10.65;8.70;;;;;;;13.69;100.00;99642.13;1657583;86;21076;-82
2021/06/09 00:10:42;;;;;;;13.00;9.90;;;;;;;13.73;100.00;99633.52;1657296;84;20994;-81
2021/06/09 00:13:09;;;;;;;13.72;10.63;;;;;;;13.74;100.00;99632.59;1657079;86;21093;-80
2021/06/09 00:15:37;;;;;;;11.50;9.55;;;;;;;13.76;100.00;99625.42;1713093;83;21101;-80
2021/06/09 00:18:04;;;;;;;18.17;11.80;;;;;;;13.77;100.00;99627.95;1713945;83;21076;-80
2021/06/09 00:20:31;;;;;;;15.32;11.12;;;;;;;13.78;100.00;99624.39;1713334;82;21085;-79
2021/06/09 00:22:58;;;;;;;14.45;10.90;;;;;;;13.77;100.00;99616.05;1713903;83;21132;-79
2021/06/09 00:25:25;;;;;;;13.53;11.53;;;;;;;13.77;100.00;99617.38;1713645;82;21080;-78
2021/06/09 00:27:54;;;;;;;17.50;11.30;;;;;;;13.77;100.00;99620.50;1713936;83;21178;-80
2021/06/09 00:30:29;;;;;;;12.37;10.58;;;;;;;13.77;100.00;99618.70;1705285;83;21159;-80
2021/06/09 00:32:57;;;;;;;12.55;10.65;;;;;;;13.76;100.00;99620.13;1684800;85;21072;-81
2021/06/09 00:35:44;;;;;;;9.05;8.05;;;;;;;13.76;100.00;99612.19;1684702;83;21067;-86
2021/06/09 00:38:11;;;;;;;11.43;8.60;;;;;;;13.75;100.00;99613.11;1714779;83;21695;-76
2021/06/09 00:40:39;;;;;;;11.75;9.35;;;;;;;13.74;100.00;99606.13;1714558;83;21560;-75
2021/06/09 00:43:14;;;;;;;13.98;9.48;;;;;;;13.75;100.00;99611.79;1714587;83;21015;-75
2021/06/09 00:45:46;;;;;;;12.00;8.58;;;;;;;13.75;100.00;99614.44;1714712;83;21820;-74
2021/06/09 00:48:13;;;;;;;12.70;9.45;;;;;;;13.74;100.00;99611.42;1714666;83;21025;-76
2021/06/09 00:50:40;;;;;;;13.75;9.88;;;;;;;13.73;100.00;99613.67;1712723;80;76994;-88
2021/06/09 00:55:53;;;;;;;12.43;10.15;;;;;;;13.69;100.00;99605.52;1722517;83;21074;-80
2021/06/09 00:58:21;;;;;;;17.60;9.53;;;;;;;13.69;100.00;99605.52;1722388;83;21066;-82
2021/06/09 01:00:48;;;;;;;12.98;9.30;;;;;;;13.67;100.00;99606.11;1722716;81;21038;-82
2021/06/09 01:03:15;;;;;;;14.60;9.50;;;;;;;13.67;100.00;99608.28;1722652;83;21073;-81
2021/06/09 01:05:43;;;;;;;13.13;10.10;;;;;;;13.67;100.00;99602.14;1722628;83;21324;-80
2021/06/09 01:08:12;;;;;;;11.38;8.90;;;;;;;13.64;100.00;99601.38;1722495;81;21047;-79
2021/06/09 01:10:40;;;;;;;12.10;9.10;;;;;;;13.64;100.00;99607.98;1721890;83;21031;-78
2021/06/09 01:13:07;;;;;;;13.85;9.88;;;;;;;13.64;100.00;99609.31;1722054;83;21065;-77
2021/06/09 01:15:34;;;;;;;11.85;9.88;;;;;;;13.62;100.00;99605.90;1722153;83;21082;-77
2021/06/09 01:18:01;;;;;;;11.05;9.30;;;;;;;13.60;100.00;99603.81;1722307;82;21450;-78
2021/06/09 01:20:28;;;;;;;11.83;9.88;;;;;;;13.59;100.00;99603.41;1722433;83;21098;-87
2021/06/09 01:22:55;;;;;;;12.75;10.08;;;;;;;13.57;100.00;99606.64;1723335;81;21069;-91
2021/06/09 01:25:22;;;;;;;13.78;10.72;;;;;;;13.54;100.00;99604.16;1723260;83;21109;-88
2021/06/09 01:27:50;;;;;;;15.50;10.08;;;;;;;13.52;100.00;99607.35;1723584;81;21073;-89
2021/06/09 01:30:18;;;;;;;16.20;9.08;;;;;;;13.51;100.00;99606.14;1715595;83;22296;-80
2021/06/09 01:32:46;;;;;;;11.57;9.63;;;;;;;13.48;100.00;99610.27;1693481;83;21057;-77
2021/06/09 01:35:13;;;;;;;17.77;9.63;;;;;;;13.47;100.00;99613.86;1666866;86;21094;-82
2021/06/09 01:37:40;;;;;;;11.63;9.23;;;;;;;13.43;100.00;99609.20;1698834;80;21054;-80
2021/06/09 01:40:11;;;;;;;11.48;9.65;;;;;;;13.39;100.00;99615.62;1738434;81;21020;-82
2021/06/09 01:42:38;;;;;;;12.65;10.08;;;;;;;13.36;100.00;99618.43;1721476;83;21099;-81
2021/06/09 01:45:07;;;;;;;18.12;10.65;;;;;;;13.35;100.00;99624.67;1708626;83;21102;-81
2021/06/09 01:47:35;;;;;;;15.13;10.48;;;;;;;13.32;100.00;99625.70;1728630;83;21015;-83
2021/06/09 01:50:06;;;;;;;16.10;10.15;;;;;;;13.30;100.00;99619.64;1728201;83;21051;-81
2021/06/09 01:52:33;;;;;;;15.48;10.43;;;;;;;13.27;100.00;99629.02;1706974;79;21599;-70
2021/06/09 01:55:01;;;;;;;17.30;10.03;;;;;;;13.25;100.00;99631.37;1702603;84;21092;-71
2021/06/09 01:57:28;;;;;;;11.30;9.68;;;;;;;13.25;100.00;99634.02;1704332;82;21065;-72
2021/06/09 01:59:55;;;;;;;11.75;9.03;;;;;;;13.24;100.00;99626.55;1729896;82;21046;-72
2021/06/09 02:02:22;;;;;;;12.13;7.70;;;;;;;13.22;100.00;99629.27;1729826;82;21104;-73
2021/06/09 02:04:48;;;;;;;10.63;9.18;;;;;;;13.22;100.00;99625.31;1729893;82;21586;-71
2021/06/09 02:07:15;;;;;;;11.00;8.43;;;;;;;13.23;100.00;99632.32;1725212;81;21106;-78
2021/06/09 02:09:43;;;;;;;15.75;10.10;;;;;;;13.22;100.00;99632.39;1719292;83;21015;-78
2021/06/09 02:12:10;;;;;;;14.65;10.60;;;;;;;13.22;100.00;99633.23;1719304;83;20999;-78
2021/06/09 02:14:37;;;;;;;13.28;10.60;;;;;;;13.19;100.00;99634.74;1719307;82;21547;-74
2021/06/09 02:17:05;;;;;;;14.18;10.20;;;;;;;13.18;100.00;99634.38;1719275;83;21517;-75
2021/06/09 02:21:58;;;;;;;12.63;11.03;;;;;;;13.25;100.00;99632.69;1767629;77;24245;-81
2021/06/09 02:24:31;;;;;;;14.70;11.40;;;;;;;13.20;100.00;99635.59;1708500;84;21017;-81
2021/06/09 02:26:57;;;;;;;16.32;12.23;;;;;;;13.22;100.00;99641.17;1703141;84;21102;-83
2021/06/09 02:29:24;;;;;;;14.07;11.45;;;;;;;13.23;100.00;99636.28;1703045;84;21085;-81
2021/06/09 02:31:52;;;;;;;18.98;11.78;;;;;;;13.25;100.00;99636.66;1666284;84;21018;-85
2021/06/09 02:34:22;;;;;;;12.50;11.20;;;;;;;13.27;100.00;99640.07;1662584;86;21148;-84
2021/06/09 02:36:54;;;;;;;14.70;11.97;;;;;;;13.30;100.00;99637.31;1679269;81;21022;-70
2021/06/09 02:39:22;;;;;;;14.95;11.83;;;;;;;13.35;100.00;99633.45;1702967;84;21145;-69
2021/06/09 02:41:49;;;;;;;16.62;11.43;;;;;;;13.39;100.00;99636.31;1702067;84;20960;-70
2021/06/09 02:44:16;;;;;;;12.90;11.50;;;;;;;13.45;100.00;99632.45;1701009;84;22241;-70
2021/06/09 02:47:01;;;;;;;14.47;10.65;;;;;;;13.51;100.00;99639.20;1674721;84;21160;-71
2021/06/09 02:49:30;;;;;;;16.60;11.45;;;;;;;13.56;100.00;99631.38;1680343;84;21131;-73
2021/06/09 02:52:19;;;;;;;14.95;11.12;;;;;;;13.64;100.00;99631.80;1678468;82;21131;-79
2021/06/09 02:55:23;;;;;;;12.60;10.65;;;;;;;13.71;100.00;99630.11;1653512;85;21654;-76
2021/06/09 02:57:58;;;;;;;20.77;10.82;;;;;;;13.82;100.00;99630.33;1653788;86;21038;-78
2021/06/09 03:01:10;;;;;;;13.18;11.20;;;;;;;13.96;100.00;99627.72;1658178;85;21058;-76
2021/06/09 03:03:47;;;;;;;12.75;11.30;;;;;;;14.08;100.00;99631.47;1682503;85;21012;-77
2021/06/09 03:06:29;;;;;;;14.58;10.98;;;;;;;14.26;100.00;99633.46;1680588;80;21138;-84
2021/06/09 03:09:10;;;;;;;14.75;10.70;;;;;;;14.39;100.00;99638.41;1648844;87;21157;-84
2021/06/09 03:12:08;;;;;;;10.43;9.25;;;;;;;14.54;100.00;99638.41;1649254;85;21564;-85
2021/06/09 03:17:24;;;;;;;16.02;10.60;;;;;;;14.86;100.00;99646.61;1676411;84;21078;-83
2021/06/09 03:20:20;;;;;;;13.18;10.10;;;;;;;15.03;100.00;99640.71;1653777;85;21879;-82
2021/06/09 03:23:17;;;;;;;11.30;8.78;;;;;;;15.19;100.00;99641.44;1640327;82;21139;-73
2021/06/09 03:26:04;;;;;;;11.85;8.68;;;;;;;15.39;100.00;99651.23;1682445;85;21080;-73
2021/06/09 03:28:41;;;;;;;13.00;7.87;;;;;;;15.55;100.00;99641.31;1644967;85;21619;-73
2021/06/09 03:31:13;;;;;;;10.20;8.88;;;;;;;15.75;100.00;99643.19;1686066;85;21576;-72
2021/06/09 03:33:44;;;;;;;9.48;7.83;;;;;;;15.92;100.00;99640.27;1688620;83;26264;-73
2021/06/09 03:36:16;;;;;;;14.03;8.95;;;;;;;16.08;100.00;99640.06;1660469;85;21086;-73
2021/06/09 03:38:50;;;;;;;11.70;8.30;;;;;;;16.25;100.00;99637.61;1740549;80;21611;-81
2021/06/09 03:41:17;;;;;;;12.70;8.40;;;;;;;16.39;100.00;99638.84;1752070;81;21047;-82
2021/06/09 03:43:47;;;;;;;11.35;8.55;;;;;;;16.56;100.00;99642.97;1752613;81;21110;-81
2021/06/09 03:46:15;;;;;;;10.17;7.37;;;;;;;16.71;99.36;99643.73;1752223;81;21849;-82
2021/06/09 03:48:44;;;;;;;9.98;8.20;;;;;;;16.88;98.31;99642.07;1752462;81;21028;-81
2021/06/09 03:51:23;;;;;;;11.00;8.03;;;;;;;17.06;96.50;99641.73;1752118;80;21019;-80
2021/06/09 03:53:50;;;;;;;10.93;7.42;;;;;;;17.21;95.66;99639.31;1752435;81;21243;-84
2021/06/09 03:56:18;;;;;;;10.50;8.05;;;;;;;17.39;94.91;99637.97;1752477;81;21028;-85
2021/06/09 03:58:46;;;;;;;8.50;7.22;;;;;;;17.58;93.91;99639.28;1752991;80;21522;-85
2021/06/09 04:01:13;;;;;;;8.00;6.97;;;;;;;17.77;93.00;99646.25;1752538;81;21004;-85
2021/06/09 04:03:41;;;;;;;10.38;6.70;;;;;;;17.95;91.17;99644.55;1753274;81;21232;-82
2021/06/09 04:06:14;;;;;;;9.20;7.37;;;;;;;18.11;90.25;99642.42;1752175;81;21039;-78
2021/06/09 04:08:41;;;;;;;8.60;7.53;;;;;;;18.26;89.02;99655.53;1696657;79;21032;-74
2021/06/09 04:11:14;;;;;;;9.70;7.53;;;;;;;18.41;87.54;99654.37;1674241;84;21194;-73
2021/06/09 04:13:41;;;;;;;7.95;7.17;;;;;;;18.58;86.89;99651.22;1646856;85;21130;-74
2021/06/09 04:16:09;;;;;;;11.12;7.28;;;;;;;18.75;86.12;99651.26;1646657;87;21050;-75
2021/06/09 04:18:38;;;;;;;8.65;7.75;;;;;;;18.92;84.76;99650.44;1676511;83;21573;-75
2021/06/09 04:21:06;;;;;;;10.43;7.33;;;;;;;19.07;83.30;99653.20;1693320;84;22047;-80
2021/06/09 04:23:33;;;;;;;9.43;7.55;;;;;;;19.21;82.84;99645.41;1725127;78;21144;-72
2021/06/09 04:26:00;;;;;;;7.47;6.78;;;;;;;19.36;81.15;99650.86;1733690;80;21026;-75
2021/06/09 04:28:27;;;;;;;9.63;6.87;;;;;;;19.54;80.45;99655.69;1749008;81;21143;-74
2021/06/09 04:30:54;;;;;;;7.95;7.12;;;;;;;19.75;79.64;99647.26;1752461;81;21467;-76
2021/06/09 04:33:30;;;;;;;9.00;6.92;;;;;;;19.96;78.98;99649.13;1748969;81;21059;-75
2021/06/09 04:35:57;;;;;;;7.97;6.37;;;;;;;20.20;77.83;99641.72;1746212;81;21792;-75
2021/06/09 04:38:24;;;;;;;12.40;7.83;;;;;;;20.43;75.27;99641.55;1699046;81;21020;-84
2021/06/09 04:40:51;;;;;;;8.80;6.95;;;;;;;20.61;74.23;99642.67;1646485;86;21669;-71
2021/06/09 04:43:23;;;;;;;9.93;6.42;;;;;;;20.77;73.85;99644.86;1646204;87;21091;-70
2021/06/09 04:45:51;;;;;;;8.60;6.87;;;;;;;20.95;72.87;99643.25;1626175;86;21078;-70
2021/06/09 04:48:18;;;;;;;9.98;6.72;;;;;;;21.08;71.42;99643.02;1659355;85;21153;-71
2021/06/09 04:50:48;;;;;;;7.20;6.20;;;;;;;21.25;71.06;99640.67;1670805;85;21087;-68
2021/06/09 04:53:16;;;;;;;9.25;6.60;;;;;;;21.47;69.75;99643.16;1657130;83;21639;-69
2021/06/09 04:55:45;;;;;;;8.35;6.85;;;;;;;21.68;68.80;99642.20;1635928;85;21121;-68
2021/06/09 04:58:14;;;;;;;11.57;6.25;;;;;;;21.88;67.98;99637.67;1613018;87;21614;-70
2021/06/09 05:00:42;;;;;;;8.40;6.35;;;;;;;22.09;66.11;99633.52;1616143;88;21188;-70
2021/06/09 05:03:09;;;;;;;9.05;6.40;;;;;;;22.19;65.16;99639.70;1613566;87;21108;-69
2021/06/09 05:05:37;;;;;;;11.15;6.62;;;;;;;22.33;65.18;99633.08;1613744;85;21567;-69
2021/06/09 05:08:05;;;;;;;8.33;6.00;;;;;;;22.49;64.40;99630.64;1632315;83;21069;-67
2021/06/09 05:10:35;;;;;;;11.12;5.92;;;;;;;22.62;63.85;99631.67;1625635;87;21613;-69
2021/06/09 05:13:18;;;;;;;7.22;5.90;;;;;;;22.85;62.96;99622.75;1681797;85;21511;-68
2021/06/09 05:15:53;;;;;;;6.35;4.85;;;;;;;23.01;61.88;99622.98;1663637;84;21049;-70
2021/06/09 05:18:24;;;;;;;6.25;5.17;;;;;;;23.27;60.36;99625.47;1663761;85;21503;-69
2021/06/09 05:20:52;;;;;;;7.85;5.30;;;;;;;23.45;59.46;99629.03;1669584;84;21140;-67
2021/06/09 05:23:42;;;;;;;10.85;5.35;;;;;;;23.60;58.58;99636.92;1646320;81;21751;-71
2021/06/09 05:26:11;;;;;;;10.40;5.25;;;;;;;23.79;58.14;99635.11;1638022;85;21865;-68
2021/06/09 05:28:50;;;;;;;6.25;5.03;;;;;;;24.12;57.01;99636.73;1647351;85;21028;-80
2021/06/09 05:31:18;;;;;;;5.12;4.62;;;;;;;24.38;56.15;99630.86;1660341;85;21083;-80
2021/06/09 05:33:45;;;;;;;8.03;5.12;;;;;;;24.68;53.39;99632.76;1643060;85;21145;-79
2021/06/09 05:36:13;;;;;;;7.47;4.50;;;;;;;24.80;54.04;99632.84;1626276;85;21578;-76
2021/06/09 05:38:41;;;;;;;8.28;5.50;;;;;;;24.93;53.22;99640.97;1629311;84;21738;-79
2021/06/09 05:41:08;;;;;;;7.30;4.50;;;;;;;24.98;53.40;99636.77;1639625;85;21088;-79
2021/06/09 05:43:35;;;;;;;8.03;4.67;;;;;;;25.09;52.69;99635.66;1647543;85;21239;-78
2021/06/09 05:46:08;;;;;;;6.67;4.20;;;;;;;25.12;52.22;99638.01;1627311;85;21082;-80
2021/06/09 05:48:43;;;;;;;7.20;4.40;;;;;;;25.16;51.97;99641.23;1607000;87;21149;-78
2021/06/09 05:51:11;;;;;;;6.28;4.35;;;;;;;25.28;52.00;99643.52;1667040;84;21141;-79
2021/06/09 05:53:39;;;;;;;8.58;5.05;;;;;;;25.46;51.40;99642.53;1693790;79;22131;-83
2021/06/09 05:56:06;;;;;;;8.48;5.10;;;;;;;25.62;51.34;99634.99;1712994;83;21098;-79
2021/06/09 05:58:33;;;;;;;8.93;4.30;;;;;;;25.77;51.63;99641.43;1713847;83;21098;-78
2021/06/09 06:01:04;;;;;;;4.97;4.45;;;;;;;25.88;49.63;99633.53;1713077;83;21141;-79
2021/06/09 06:03:31;;;;;;;23.98;4.95;;;;;;;25.97;49.18;99643.31;1713539;83;26427;-81
2021/06/09 06:06:07;;;;;;;10.43;4.22;;;;;;;26.06;49.63;99642.30;1713452;83;21042;-78
2021/06/09 06:08:36;;;;;;;10.03;4.70;;;;;;;26.09;49.32;99638.42;1704839;79;21071;-82
2021/06/09 06:11:11;;;;;;;7.83;4.42;;;;;;;26.21;48.81;99641.13;1702910;83;21138;-80
2021/06/09 06:13:41;;;;;;;7.75;4.25;;;;;;;26.29;48.79;99638.92;1681886;83;21214;-82
2021/06/09 06:16:07;;;;;;;9.87;4.47;;;;;;;26.40;48.15;99643.97;1689632;83;21096;-82
2021/06/09 06:18:37;;;;;;;9.50;4.53;;;;;;;26.43;48.22;99634.17;1671353;85;21083;-82
2021/06/09 06:21:09;;;;;;;13.22;4.58;;;;;;;26.54;46.99;99636.55;1671602;85;21109;-83
2021/06/09 06:23:36;;;;;;;16.65;4.42;;;;;;;26.73;47.07;99631.78;1709347;80;21048;-75
2021/06/09 06:26:03;;;;;;;9.18;4.28;;;;;;;26.99;46.78;99629.67;1725040;80;21068;-79
2021/06/09 06:28:31;;;;;;;8.00;3.45;;;;;;;27.16;44.88;99634.48;1716082;81;21150;-78
2021/06/09 06:30:58;;;;;;;6.55;3.30;;;;;;;27.29;44.88;99633.96;1735727;81;20992;-77
2021/06/09 06:33:26;;;;;;;6.97;4.15;;;;;;;27.45;43.91;99634.87;1721294;81;20970;-77
2021/06/09 06:35:58;;;;;;;6.08;3.42;;;;;;;27.46;44.53;99634.70;1732651;81;21038;-82
2021/06/09 06:38:25;;;;;;;6.05;4.03;;;;;;;27.50;44.31;99624.38;1719714;80;21093;-80
2021/06/09 06:40:52;;;;;;;10.18;3.20;;;;;;;27.39;44.57;99635.92;1710441;82;22308;-80
2021/06/09 06:43:20;;;;;;;2.85;2.05;;;;;;;27.32;44.98;99637.66;1708247;83;21122;-80
2021/06/09 06:45:47;;;;;;;5.53;2.67;;;;;;;27.44;42.57;99635.91;1680167;83;21073;-80
2021/06/09 06:48:16;;;;;;;4.90;2.80;;;;;;;27.69;42.20;99636.59;1678644;83;21154;-80
2021/06/09 06:50:44;;;;;;;3.60;2.10;;;;;;;27.77;42.18;99631.14;1674291;85;21079;-81
2021/06/09 06:53:13;;;;;;;6.45;2.27;;;;;;;27.89;41.30;99632.94;1672710;82;21157;-80
2021/06/09 06:55:42;;;;;;;7.40;2.45;;;;;;;28.07;40.54;99636.66;1660472;84;21073;-80
2021/06/09 06:58:09;;;;;;;3.08;2.40;;;;;;;28.36;40.59;99629.96;1659374;84;21103;-81
2021/06/09 07:00:36;;;;;;;3.62;2.15;;;;;;;28.65;39.37;99630.55;1656251;86;21152;-80
2021/06/09 07:03:03;;;;;;;5.22;2.92;;;;;;;28.83;38.59;99628.00;1662359;84;21732;-80
2021/06/09 07:05:33;;;;;;;3.22;2.22;;;;;;;28.92;38.59;99630.94;1676323;84;22374;-80
2021/06/09 07:08:02;;;;;;;3.08;2.00;;;;;;;28.92;38.92;99628.23;1668905;83;21916;-79
2021/06/09 07:10:30;;;;;;;3.87;2.20;;;;;;;28.77;37.61;99627.37;1606071;87;21671;-79
2021/06/09 07:13:01;;;;;;;3.40;2.47;;;;;;;28.59;37.78;99617.73;1622801;86;21138;-80
2021/06/09 07:15:29;;;;;;;2.52;2.00;;;;;;;28.71;38.09;99625.41;1619505;86;21644;-81
2021/06/09 07:17:57;;;;;;;8.38;2.80;;;;;;;28.86;38.88;99624.91;1628114;87;21582;-79
2021/06/09 07:20:25;;;;;;;6.05;2.60;;;;;;;29.03;38.02;99629.59;1611442;87;21659;-81
2021/06/09 07:22:54;;;;;;;6.65;2.50;;;;;;;29.16;38.20;99623.55;1629431;79;21034;-79
2021/06/09 07:25:23;;;;;;;7.62;2.95;;;;;;;29.33;37.98;99623.63;1595592;89;21589;-78
2021/06/09 07:27:56;;;;;;;7.90;2.72;;;;;;;29.43;37.90;99622.00;1657980;85;21560;-80
2021/06/09 07:30:27;;;;;;;4.08;2.20;;;;;;;29.55;37.36;99625.88;1661667;85;21755;-79
2021/06/09 07:32:56;;;;;;;12.35;3.52;;;;;;;29.51;36.97;99623.22;1665780;85;21045;-80
2021/06/09 07:35:23;;;;;;;6.40;2.47;;;;;;;29.37;36.83;99622.75;1663652;85;21110;-79
2021/06/09 07:37:52;;;;;;;4.87;2.30;;;;;;;29.42;36.40;99617.59;1653279;81;21077;-81
2021/06/09 07:40:28;;;;;;;5.33;2.22;;;;;;;29.50;36.83;99622.91;1720901;83;21574;-82
2021/06/09 07:43:04;;;;;;;4.65;2.10;;;;;;;29.57;36.50;99624.34;1700124;83;21135;-83
2021/06/09 07:45:33;;;;;;;4.78;1.90;;;;;;;29.61;35.87;99625.12;1723698;83;21048;-82
2021/06/09 07:48:00;;;;;;;4.92;2.00;;;;;;;29.74;34.82;99623.59;1727067;82;21143;-82
2021/06/09 07:50:41;;;;;;;4.05;2.27;;;;;;;29.76;35.23;99627.79;1684729;84;21106;-82
2021/06/09 07:53:09;;;;;;;6.53;2.10;;;;;;;29.67;35.84;99626.20;1690017;81;20996;-80
2021/06/09 07:55:43;;;;;;;28.62;3.58;;;;;;;29.66;35.15;99627.25;1709521;83;21103;-79
2021/06/09 07:58:18;;;;;;;5.12;1.82;;;;;;;29.76;35.72;99623.72;1667000;84;21075;-79
2021/06/09 08:00:46;;;;;;;3.27;2.37;;;;;;;29.94;34.73;99618.36;1701506;82;21093;-80
2021/06/09 08:03:13;;;;;;;4.92;2.08;;;;;;;30.04;34.77;99625.64;1697580;82;22159;-78
2021/06/09 08:05:40;;;;;;;5.37;2.20;;;;;;;30.13;34.90;99625.00;1717494;82;21069;-79
2021/06/09 08:08:13;;;;;;;4.85;2.30;;;;;;;30.04;34.75;99621.58;1693665;81;21127;-81
2021/06/09 08:10:43;;;;;;;5.78;1.80;;;;;;;30.01;34.42;99626.05;1681638;83;21572;-82
2021/06/09 08:13:11;;;;;;;2.12;1.60;;;;;;;30.11;33.77;99619.75;1698909;83;21108;-80
2021/06/09 08:15:40;;;;;;;10.25;1.77;;;;;;;30.25;33.59;99624.28;1653693;86;21367;-83
2021/06/09 08:18:08;;;;;;;2.67;1.65;;;;;;;30.55;33.00;99615.92;1692451;83;21608;-81
2021/06/09 08:20:38;;;;;;;5.55;2.08;;;;;;;30.81;32.20;99619.87;1669219;85;21138;-82
2021/06/09 08:23:05;;;;;;;3.45;1.75;;;;;;;31.03;32.01;99619.26;1659842;83;22318;-79
2021/06/09 08:25:31;;;;;;;3.70;1.40;;;;;;;31.24;30.38;99619.66;1686463;84;21066;-77
2021/06/09 08:27:58;;;;;;;6.67;1.77;;;;;;;31.21;30.78;99615.46;1700512;83;21082;-78
2021/06/09 08:30:26;;;;;;;1.55;1.45;;;;;;;30.98;31.38;99619.86;1691893;83;21052;-77
2021/06/09 08:32:53;;;;;;;2.40;1.77;;;;;;;31.01;31.01;99617.26;1701293;83;21971;-77
2021/06/09 08:35:22;;;;;;;3.42;1.60;;;;;;;30.96;30.92;99623.30;1687467;83;21074;-79
2021/06/09 08:37:48;;;;;;;2.95;1.70;;;;;;;30.96;30.92;99623.30;1689513;84;21119;-78
2021/06/09 08:40:15;;;;;;;3.98;1.80;;;;;;;30.82;30.97;99612.84;1729475;80;21085;-80
2021/06/09 08:42:43;;;;;;;4.10;1.75;;;;;;;30.85;31.65;99621.15;1692663;83;21096;-78
2021/06/09 08:45:12;;;;;;;3.05;1.80;;;;;;;30.85;31.65;99621.15;1662983;85;21789;-77
2021/06/09 08:47:40;;;;;;;3.17;1.70;;;;;;;30.91;31.41;99615.75;1635605;86;21086;-79
2021/06/09 08:50:09;;;;;;;2.75;1.57;;;;;;;30.99;31.13;99624.28;1643241;85;21168;-81
2021/06/09 08:52:44;;;;;;;2.33;1.60;;;;;;;31.19;31.22;99616.71;1706319;81;21600;-79
2021/06/09 08:55:12;;;;;;;4.62;1.75;;;;;;;31.59;29.99;99615.48;1683352;81;21072;-80
2021/06/09 08:57:39;;;;;;;4.17;2.17;;;;;;;31.59;29.99;99615.48;1720732;81;21765;-82
2021/06/09 09:00:08;;;;;;;3.05;1.70;;;;;;;32.18;28.38;99611.48;1726418;81;21033;-77
2021/06/09 09:02:35;;;;;;;3.77;1.75;;;;;;;32.18;28.38;99611.48;1731327;81;21044;-77
2021/06/09 09:05:02;;;;;;;3.75;1.85;;;;;;;32.34;28.79;99607.50;1735335;81;21628;-74
2021/06/09 09:07:29;;;;;;;6.33;2.12;;;;;;;32.53;28.61;99610.44;1745268;81;21117;-75
2021/06/09 09:09:57;;;;;;;2.80;1.70;;;;;;;32.69;28.84;99605.89;1669894;78;21111;-78
2021/06/09 09:12:25;;;;;;;4.75;1.80;;;;;;;32.74;27.98;99600.66;1640818;85;20998;-75
2021/06/09 09:14:51;;;;;;;5.95;1.95;;;;;;;32.70;27.53;99594.48;1637997;85;21608;-75
2021/06/09 09:17:19;;;;;;;2.70;1.85;;;;;;;32.73;27.67;99592.14;1633087;86;21513;-77
2021/06/09 09:19:46;;;;;;;3.45;2.40;;;;;;;32.70;28.16;99593.95;1633225;87;21038;-76
2021/06/09 09:22:22;;;;;;;3.30;2.35;;;;;;;32.51;28.16;99602.99;1615275;87;21129;-78
2021/06/09 09:24:52;;;;;;;3.05;2.30;;;;;;;32.52;28.31;99595.14;1688442;82;20977;-75
2021/06/09 09:27:29;;;;;;;2.45;2.20;;;;;;;32.48;29.90;99589.23;1760480;81;21010;-75
2021/06/09 09:30:11;;;;;;;4.00;2.17;;;;;;;32.40;30.29;99588.12;1741620;81;21010;-77
2021/06/09 09:32:40;;;;;;;6.92;3.30;;;;;;;32.24;30.19;99589.39;1728526;81;21016;-82
2021/06/09 09:35:09;;;;;;;5.62;3.85;;;;;;;31.93;31.46;99584.05;1698758;81;21202;-81
2021/06/09 09:37:37;;;;;;;;;;;;;;;31.61;31.21;99582.97;1712482;81;20996;-84
2021/06/09 09:40:17;;;;;;;3.22;2.80;;;;;;;31.48;32.22;99576.97;1683110;81;20200;-79
2021/06/09 09:42:48;;;;;;;3.92;2.62;;;;;;;31.36;32.14;99574.52;1627113;86;21056;-78
2021/06/09 09:45:28;;;;;;;3.10;2.80;;;;;;;31.30;31.94;99567.16;1694117;83;21056;-80
2021/06/09 09:48:15;;;;;;;5.42;2.70;;;;;;;31.11;31.87;99564.18;1688766;83;21137;-80
2021/06/09 09:50:54;;;;;;;5.65;2.83;;;;;;;31.00;32.22;99563.41;1692995;83;21044;-78
2021/06/09 09:53:21;;;;;;;3.85;2.72;;;;;;;30.92;32.60;99563.57;1685244;79;21063;31
2021/06/09 09:56:01;;;;;;;5.85;3.33;;;;;;;30.69;31.61;99564.72;1720690;82;21494;-79
2021/06/09 09:58:29;;;;;;;3.33;2.50;;;;;;;30.63;31.10;99554.64;1705914;82;21011;-78
2021/06/09 10:01:08;;;;;;;9.33;2.70;;;;;;;30.96;31.40;99555.86;1715636;80;21857;-78
2021/06/09 10:03:40;;;;;;;12.33;3.30;;;;;;;30.96;31.40;99555.86;1760049;79;20982;-81
2021/06/09 10:06:39;;;;;;;3.27;2.50;;;;;;;31.31;30.37;99553.87;1757724;79;21447;-79
2021/06/09 10:09:29;;;;;;;5.33;2.90;;;;;;;31.56;30.49;99553.66;1770323;79;21441;-76
2021/06/09 10:11:58;;;;;;;3.52;2.30;;;;;;;31.80;30.51;99539.64;1728135;81;21050;-76
2021/06/09 10:14:38;;;;;;;3.25;2.52;;;;;;;31.88;28.87;99536.16;1765106;79;21121;-77
2021/06/09 10:17:09;;;;;;;10.50;2.98;;;;;;;32.05;28.65;99537.98;1764783;79;20959;-76
2021/06/09 10:19:44;;;;;;;4.85;2.80;;;;;;;32.10;28.69;99540.08;1760183;79;21058;-75
2021/06/09 10:22:15;;;;;;;8.70;2.75;;;;;;;32.11;28.25;99534.92;1769779;79;21041;-75
2021/06/09 10:25:00;;;;;;;3.15;2.35;;;;;;;32.04;29.01;99533.56;1718927;79;21134;-78
2021/06/09 10:27:48;;;;;;;3.83;2.25;;;;;;;31.84;28.71;99525.41;1682334;83;21153;-77
2021/06/09 10:30:24;;;;;;;4.90;2.70;;;;;;;31.76;29.63;99522.34;1674939;83;20991;-78
2021/06/09 10:33:01;;;;;;;6.00;2.67;;;;;;;31.84;28.99;99526.77;1653573;85;21024;-77
2021/06/09 10:35:38;;;;;;;6.78;2.58;;;;;;;31.95;29.61;99513.84;1652110;85;20992;-80
2021/06/09 10:38:07;;;;;;;10.98;2.80;;;;;;;32.07;28.03;99511.38;1662485;84;21095;-81
2021/06/09 10:40:34;;;;;;;4.87;2.33;;;;;;;32.00;29.08;99519.22;1655911;81;21130;-81
2021/06/09 10:43:05;;;;;;;8.53;2.62;;;;;;;31.78;29.54;99522.14;1660276;86;21020;-86
2021/06/09 10:45:33;;;;;;;4.47;2.70;;;;;;;31.64;29.41;99517.76;1654603;86;21025;-85
2021/06/09 10:48:04;;;;;;;4.85;2.65;;;;;;;31.42;29.16;99522.01;1661638;84;20993;-84
2021/06/09 10:50:31;;;;;;;4.92;2.50;;;;;;;31.02;29.40;99521.90;1653807;84;21662;-81
2021/06/09 10:52:58;;;;;;;5.45;2.90;;;;;;;30.60;30.52;99518.37;1642769;86;21123;-82
2021/06/09 10:55:24;;;;;;;3.80;2.52;;;;;;;30.66;30.79;99519.42;1659860;78;21000;-82
2021/06/09 10:57:51;;;;;;;6.08;2.20;;;;;;;30.74;30.45;99505.15;1658019;84;21015;-81
2021/06/09 11:00:18;;;;;;;4.08;2.40;;;;;;;30.77;30.65;99505.78;1646176;85;21040;-80
2021/06/09 11:02:47;;;;;;;2.87;1.98;;;;;;;30.62;30.92;99498.63;1690813;82;21012;-70
2021/06/09 11:05:14;;;;;;;5.08;3.72;;;;;;;30.40;30.62;99495.70;1666158;85;21816;-69
2021/06/09 11:07:46;;;;;;;7.10;2.90;;;;;;;30.40;30.62;99495.70;1702798;83;21493;-79
2021/06/09 11:10:16;;;;;;;5.35;2.65;;;;;;;30.29;31.06;99497.09;1691130;80;21047;-81
2021/06/09 11:12:50;;;;;;;5.58;2.40;;;;;;;30.13;31.20;99491.95;1685292;83;21025;-81
2021/06/09 11:15:22;;;;;;;4.35;2.50;;;;;;;29.87;31.01;99494.28;1688174;84;21037;-78
2021/06/09 11:18:01;;;;;;;7.08;2.52;;;;;;;29.69;31.65;99493.93;1680371;84;22406;-81
2021/06/09 11:20:38;;;;;;;6.53;2.52;;;;;;;29.45;32.22;99495.17;1682697;84;21001;-83
2021/06/09 11:23:12;;;;;;;4.12;2.08;;;;;;;29.27;31.96;99492.91;1665738;84;21051;-81
2021/06/09 11:25:48;;;;;;;5.22;2.33;;;;;;;29.25;32.04;99489.55;1675352;80;21010;-85
2021/06/09 11:28:33;;;;;;;13.98;2.90;;;;;;;29.42;30.97;99485.52;1646960;85;21022;-84
2021/06/09 11:31:05;;;;;;;7.62;2.80;;;;;;;29.82;31.16;99475.05;1656350;85;21114;-81
2021/06/09 11:33:54;;;;;;;5.60;2.45;;;;;;;30.24;31.03;99475.09;1642274;85;21670;-83
2021/06/09 11:36:27;;;;;;;5.72;2.45;;;;;;;30.50;30.37;99478.48;1636674;86;21000;-80
2021/06/09 11:38:58;;;;;;;5.92;2.45;;;;;;;30.81;29.73;99470.37;1641473;80;21468;-86
2021/06/09 11:41:31;;;;;;;13.50;3.08;;;;;;;31.19;28.17;99474.76;1673705;83;21018;-84
2021/06/09 11:43:59;;;;;;;5.10;2.10;;;;;;;31.19;28.17;99474.76;1687304;83;21140;-86
2021/06/09 11:46:37;;;;;;;4.62;2.70;;;;;;;30.94;28.55;99475.36;1693287;83;21514;-83
2021/06/09 11:49:11;;;;;;;21.62;3.52;;;;;;;30.86;29.82;99474.70;1704287;83;21056;-83
2021/06/09 11:51:46;;;;;;;17.80;3.27;;;;;;;30.96;29.68;99470.22;1701834;83;21079;-86